LECOLEXJ

Guest
Details From LECO - A Coruna
To LEXJ - Santander
Flight Number -
Tags generated
Created
Modified
Stats Distance 199 nm / 369 km
Max Altitude 19,200 ft / 5,852 m
Waypoints 3
Social Downloads 3
Likes 0
Share VATSIM

Download

Looking for another format? Having issues loading an existing format? Contact us
Advertisement - Login to hide

Notes

Basic altitude profile: - Ascent Rate: 2500ft/min - Ascent Speed: 250kts - Cruise Altitude: 35000ft - Cruise Speed: 420kts - Descent Rate: 1500ft/min - Descent Speed: 250kts Options: - Use NATs: yes - Use PACOTS: yes - Use low airways: yes - Use high airways: yes

Route

LECO RATPO LEXJ

ID Type Via Altitude Latitude Longitude Leg Dist Tot Dist Heading (true) Name
O LECO APT - 0 ft / 0 m 43.30226˚ -8.37709˚ - 0 nm - A Coruna
RATPO FIX - 19,200 ft / 5,852 m 43.31711˚ -5.98170˚ 104 nm 104 nm 89° / 90° -
O LEXJ APT - 0 ft / 0 m 43.42719˚ -3.82047˚ 94 nm 199 nm 85° / 87° Santander

Altitude Profile

Advertisement - Login to hide

Weather


0- 5 10 15 20 25 30 35+ Temperature / ° C

Clouds and Precipitation
Forecast for 2017-12-15 00:00 UTC. Updated 11 minutes ago

Ground ~20,000 ft ~40,000 ft Winds

LECO

Details ICAO LECO (LCG)
Name A Coruna
Region Spain
Timezone Europe/Madrid (UTC+1.0)
Stats Elevation 323 ft / 98 m (AMSL)
Location 43.302264° -8.377086°
Runways 1
Magnetic Variation 2.392° W

METAR

LECO 142130Z 28008KT 240V320 9999 FEW020 12/09 Q1017 NOSIG

Decode

TAF

TAF LECO 142000Z 1421/1521 28009KT 8000 SCT010 BKN030 TX13/1514Z TN07/1506Z BECMG 1502/1505 34010KT PROB30 TEMPO 1421/1508 4000 RA BKN010

Decode

Departure Runways

ID Width Length Bearing (true) Bearing (mag) Surface Threshold Offset Overrun Length
04 148 ft / 45 m 6,371 ft / 1,942 m 30.94° 33.33° Asphalt 0 ft / 0 m 194 ft / 59 m
22 148 ft / 45 m 6,371 ft / 1,942 m 210.94° 213.33° Asphalt 0 ft / 0 m 203 ft / 62 m

LEXJ

Details ICAO LEXJ (SDR)
Name Santander
Region Spain
Timezone Europe/Madrid (UTC+1.0)
Stats Elevation 16 ft / 5 m (AMSL)
Location 43.427188° -3.820470°
Runways 1
Magnetic Variation 0.913° W

METAR

LEXJ 142130Z 27018KT CAVOK 13/08 Q1012

Decode

TAF

TAF TAF LEXJ 142000Z 1421/1521 28014KT 9999 SCT025 BKN040 TX13/1514Z TN08/1507Z TEMPO 1421/1521 29015G27KT PROB40 TEMPO 1421/1521 29020G35KT PROB40 TEMPO 1503/1521 3000 SHRA SCT030TCU

Decode

Destination Runways

ID Width Length Bearing (true) Bearing (mag) Surface Threshold Offset Overrun Length
11 148 ft / 45 m 7,597 ft / 2,316 m 110.20° 111.11° Asphalt 0 ft / 0 m 98 ft / 30 m
29 148 ft / 45 m 7,597 ft / 2,316 m 290.22° 291.13° Asphalt 0 ft / 0 m 0 ft / 0 m

Approach Navaids

Runway Type Ident Frequency Range Bearing (true) Bearing (mag) Slope Elevation
29 Localiser STA 110.90 MHz 18 nm / 33 km 290.19° 291.10° - 16 ft / 5 m (AMSL)
29 Glidescope STA 110.90 MHz 10 nm / 19 km 290.21° 291.12° 3.00° 16 ft / 5 m (AMSL)
29 DME STA 110.90 MHz 18 nm / 33 km - - - 26 ft / 8 m (AMSL)

Popular Alternatives